Terminal Aerodrome Forecast
Issued by NWS

Current Version | Previous Version | Graphics & Text | Print | Product List | Glossary On
Versions: 1 2 3 4 5 6 7 8 9 10 11 12 13 14 15 16 17
000
FTUS41 KILN 282300
TAFLUK
TAF
KLUK 282334Z 2900/2924 26008KT P6SM SCT100 BKN200
     FM290800 26003KT P6SM SCT200
     FM291400 28008KT P6SM SCT040
     FM291800 28010G16KT P6SM BKN040=

USA.gov is the U.S. government's official web portal to all federal, state and local government web resources and services.